createdAt,value
2023-03-28T00:01:03.076Z,13.70
2023-03-28T00:03:42.779Z,13.70
2023-03-28T00:06:13.566Z,13.70
2023-03-28T00:08:42.308Z,13.70
2023-03-28T00:11:20.458Z,13.70
2023-03-28T00:13:53.866Z,13.70
2023-03-28T00:16:22.411Z,13.60
2023-03-28T00:18:52.878Z,13.60
2023-03-28T00:21:24.224Z,13.60
2023-03-28T00:24:02.211Z,13.50
2023-03-28T00:26:32.940Z,13.50
2023-03-28T00:29:02.261Z,13.50
2023-03-28T00:31:30.847Z,13.50
2023-03-28T00:34:01.237Z,13.40
2023-03-28T00:36:33.026Z,13.40
2023-03-28T00:39:02.313Z,13.40
2023-03-28T00:41:34.300Z,13.30
2023-03-28T00:44:23.126Z,13.30
2023-03-28T00:46:51.918Z,13.30
2023-03-28T00:49:25.360Z,13.30
2023-03-28T00:51:57.705Z,13.30
2023-03-28T00:54:28.688Z,13.30
2023-03-28T00:57:00.546Z,13.30
2023-03-28T00:59:32.480Z,13.30
2023-03-28T01:02:01.405Z,13.20
2023-03-28T01:04:37.451Z,13.30
2023-03-28T01:07:07.252Z,13.30
2023-03-28T01:09:38.781Z,13.30
2023-03-28T01:12:07.670Z,13.30
2023-03-28T01:14:38.274Z,13.30
2023-03-28T01:17:07.824Z,13.30
2023-03-28T01:19:59.361Z,13.20
2023-03-28T01:23:07.134Z,13.20
2023-03-28T01:25:59.702Z,13.20
2023-03-28T01:28:48.602Z,13.30
2023-03-28T01:31:44.100Z,13.20
2023-03-28T01:35:05.940Z,13.30
2023-03-28T01:37:42.332Z,13.20
2023-03-28T01:40:26.890Z,13.10
2023-03-28T01:43:20.733Z,13.10
2023-03-28T01:45:59.713Z,13.10
2023-03-28T01:48:42.053Z,13.10
2023-03-28T01:51:17.155Z,13.10
2023-03-28T01:53:54.058Z,13.10
2023-03-28T01:56:31.130Z,13.10
2023-03-28T01:59:14.345Z,13.10
2023-03-28T02:02:07.736Z,12.90
2023-03-28T02:04:38.939Z,12.80
2023-03-28T02:07:09.144Z,12.80
2023-03-28T02:09:59.337Z,12.80
2023-03-28T02:12:51.560Z,12.80
2023-03-28T02:15:41.490Z,12.80
2023-03-28T02:18:42.360Z,12.80
2023-03-28T02:21:39.983Z,12.80
2023-03-28T02:24:33.321Z,12.80
2023-03-28T02:27:37.776Z,12.70
2023-03-28T02:30:14.096Z,12.60
2023-03-28T02:32:50.702Z,12.60
2023-03-28T02:35:26.937Z,12.70
2023-03-28T02:38:04.200Z,12.60
2023-03-28T02:40:47.329Z,12.60
2023-03-28T02:43:45.862Z,12.60
2023-03-28T02:46:21.058Z,12.70
2023-03-28T02:49:14.959Z,12.60
2023-03-28T02:51:48.481Z,12.50
2023-03-28T02:54:27.670Z,12.50
2023-03-28T02:57:29.508Z,12.50
2023-03-28T03:00:05.535Z,12.20
2023-03-28T03:02:33.741Z,12.10
2023-03-28T03:05:01.988Z,12.10
2023-03-28T03:07:31.089Z,12.10
2023-03-28T03:09:59.387Z,12.10
2023-03-28T03:12:27.140Z,12.10
2023-03-28T03:15:01.340Z,12.00
2023-03-28T03:17:49.297Z,12.10
2023-03-28T03:20:23.598Z,12.00
2023-03-28T03:22:51.616Z,11.80
2023-03-28T03:25:19.795Z,11.90
2023-03-28T03:28:08.791Z,11.80
2023-03-28T03:30:38.288Z,11.80
2023-03-28T03:33:22.343Z,11.70
2023-03-28T03:35:56.142Z,11.70
2023-03-28T03:38:24.051Z,11.70
2023-03-28T03:40:52.608Z,11.70
2023-03-28T03:43:20.987Z,11.70
2023-03-28T03:45:50.144Z,11.70
2023-03-28T03:48:17.850Z,11.70
2023-03-28T03:50:45.834Z,11.70
2023-03-28T03:53:16.852Z,11.60
2023-03-28T03:55:51.372Z,11.60
2023-03-28T03:58:20.397Z,11.70
2023-03-28T04:00:52.281Z,11.70
2023-03-28T04:03:36.886Z,11.50
2023-03-28T04:06:06.224Z,11.30
2023-03-28T04:08:34.415Z,11.30
2023-03-28T04:11:07.986Z,11.30
2023-03-28T04:13:40.090Z,11.30
2023-03-28T04:16:12.054Z,11.30
2023-03-28T04:18:58.082Z,11.30
2023-03-28T04:21:29.805Z,11.10
2023-03-28T04:24:02.016Z,11.00
2023-03-28T04:26:41.858Z,11.00
2023-03-28T04:29:13.777Z,11.20
2023-03-28T04:31:50.333Z,11.20
2023-03-28T04:34:41.232Z,11.00
2023-03-28T04:37:12.155Z,10.80
2023-03-28T04:39:54.305Z,10.90
2023-03-28T04:42:30.774Z,11.00
2023-03-28T04:45:17.998Z,10.90
2023-03-28T04:47:49.302Z,10.80
2023-03-28T04:50:21.750Z,10.70
2023-03-28T04:52:49.597Z,10.90
2023-03-28T04:55:18.173Z,10.90
2023-03-28T04:57:48.468Z,11.00
2023-03-28T05:00:19.344Z,10.80
2023-03-28T05:03:13.160Z,10.50
2023-03-28T05:05:58.836Z,10.50
2023-03-28T05:08:27.933Z,10.60
2023-03-28T05:10:55.830Z,10.40
2023-03-28T05:13:24.024Z,10.10
2023-03-28T05:16:02.816Z,10.00
2023-03-28T05:18:52.977Z,10.00
2023-03-28T05:21:28.290Z,10.00
2023-03-28T05:24:00.593Z,10.30
2023-03-28T05:26:28.957Z,10.20
2023-03-28T05:28:57.113Z,10.30
2023-03-28T05:31:26.265Z,10.60
2023-03-28T05:34:09.166Z,10.70
2023-03-28T05:36:45.744Z,10.70
2023-03-28T05:39:23.836Z,10.90
2023-03-28T05:41:58.368Z,10.70
2023-03-28T05:44:26.310Z,10.70
2023-03-28T05:47:17.875Z,10.50
2023-03-28T05:49:47.146Z,10.40
2023-03-28T05:52:15.592Z,10.40
2023-03-28T05:54:50.426Z,10.60
2023-03-28T05:57:22.131Z,10.70
2023-03-28T05:59:50.379Z,10.70
2023-03-28T06:02:23.307Z,10.80
2023-03-28T06:04:58.254Z,10.70
2023-03-28T06:07:39.135Z,10.90
2023-03-28T06:10:13.406Z,10.90
2023-03-28T06:12:46.528Z,10.80
2023-03-28T06:15:14.593Z,10.80
2023-03-28T06:17:46.698Z,10.80
2023-03-28T06:20:17.223Z,10.80
2023-03-28T06:22:45.783Z,10.80
2023-03-28T06:25:13.807Z,10.70
2023-03-28T06:27:42.269Z,10.70
2023-03-28T06:30:11.587Z,10.70
2023-03-28T06:32:51.101Z,10.90
2023-03-28T06:35:20.741Z,11.00
2023-03-28T06:37:49.105Z,11.00
2023-03-28T06:40:23.758Z,11.00
2023-03-28T06:42:51.758Z,11.10
2023-03-28T06:45:32.391Z,11.10
2023-03-28T06:48:05.690Z,11.10
2023-03-28T06:51:13.051Z,11.20
2023-03-28T06:53:42.810Z,11.30
2023-03-28T06:56:11.838Z,11.50
2023-03-28T06:58:40.186Z,11.60
2023-03-28T07:01:11.966Z,11.60
2023-03-28T07:03:51.496Z,11.60
2023-03-28T07:06:24.122Z,11.60
2023-03-28T07:08:52.133Z,11.70
2023-03-28T07:11:27.717Z,11.80
2023-03-28T07:13:55.745Z,11.70
2023-03-28T07:16:24.007Z,11.70
2023-03-28T07:18:52.018Z,11.80
2023-03-28T07:21:24.769Z,11.80
2023-03-28T07:23:56.574Z,11.90
2023-03-28T07:26:29.003Z,11.90
2023-03-28T07:28:57.253Z,12.00
2023-03-28T07:31:26.172Z,12.10
2023-03-28T07:33:59.291Z,12.10
2023-03-28T07:36:29.600Z,12.10
2023-03-28T07:39:05.858Z,12.20
2023-03-28T07:41:34.518Z,12.30
2023-03-28T07:44:02.512Z,12.40
2023-03-28T07:46:32.446Z,12.40
2023-03-28T07:49:01.109Z,12.50
2023-03-28T07:51:31.770Z,12.60
2023-03-28T07:53:59.905Z,12.70
2023-03-28T07:56:28.664Z,12.70
2023-03-28T07:59:14.019Z,12.80
2023-03-28T08:01:46.318Z,12.90
2023-03-28T08:04:15.064Z,12.90
2023-03-28T08:06:56.352Z,13.00
2023-03-28T08:09:24.905Z,13.00
2023-03-28T08:12:16.269Z,13.10
2023-03-28T08:14:44.602Z,13.10
2023-03-28T08:17:12.662Z,13.20
2023-03-28T08:19:40.883Z,13.20
2023-03-28T08:22:13.241Z,13.30
2023-03-28T08:24:48.399Z,13.30
2023-03-28T08:27:21.401Z,13.40
2023-03-28T08:29:53.090Z,13.50
2023-03-28T08:32:21.179Z,13.50
2023-03-28T08:34:49.313Z,13.60
2023-03-28T08:37:25.203Z,13.60
2023-03-28T08:39:54.024Z,13.70
2023-03-28T08:42:39.884Z,13.80
2023-03-28T08:45:24.905Z,13.80
2023-03-28T08:48:03.134Z,13.90
2023-03-28T08:50:35.025Z,14.00
2023-03-28T08:53:05.990Z,14.10
2023-03-28T08:55:40.468Z,14.20
2023-03-28T08:58:15.131Z,14.20
2023-03-28T09:00:43.275Z,14.20
2023-03-28T09:03:14.102Z,14.20
2023-03-28T09:05:47.452Z,14.30
2023-03-28T09:08:32.202Z,14.50
2023-03-28T09:11:06.871Z,14.60
2023-03-28T09:13:48.653Z,14.60
2023-03-28T09:16:42.751Z,14.70
2023-03-28T09:19:40.582Z,14.70
2023-03-28T09:22:37.264Z,14.80
2023-03-28T09:25:23.691Z,14.90
2023-03-28T09:28:00.886Z,14.80
2023-03-28T09:30:32.776Z,14.90
2023-03-28T09:33:05.988Z,15.00
2023-03-28T09:35:35.266Z,15.10
2023-03-28T09:38:21.453Z,15.00
2023-03-28T09:40:55.462Z,15.10
2023-03-28T09:43:31.740Z,15.20
2023-03-28T09:46:37.074Z,15.30
2023-03-28T09:49:26.333Z,15.40
2023-03-28T09:51:58.981Z,15.40
2023-03-28T09:54:31.073Z,15.60
2023-03-28T09:57:03.600Z,15.70
2023-03-28T09:59:50.270Z,15.80
2023-03-28T10:02:28.169Z,15.80
2023-03-28T10:05:00.479Z,15.80
2023-03-28T10:07:45.555Z,15.90
2023-03-28T10:10:32.198Z,15.90
2023-03-28T10:13:12.127Z,16.10
2023-03-28T10:15:45.970Z,16.20
2023-03-28T10:18:21.974Z,16.30
2023-03-28T10:21:13.149Z,16.40
2023-03-28T10:23:48.320Z,16.30
2023-03-28T10:26:22.405Z,16.30
2023-03-28T10:28:54.870Z,16.40
2023-03-28T10:31:32.147Z,16.40
2023-03-28T10:34:26.383Z,16.40
2023-03-28T10:37:26.294Z,16.40
2023-03-28T10:40:26.125Z,16.50
2023-03-28T10:43:35.786Z,16.60
2023-03-28T10:46:25.017Z,16.80
2023-03-28T10:49:21.188Z,16.80
2023-03-28T10:51:59.390Z,16.70
2023-03-28T10:54:44.187Z,16.70
2023-03-28T10:57:28.048Z,16.70
2023-03-28T11:00:04.146Z,17.00
2023-03-28T11:02:48.692Z,17.30
2023-03-28T11:05:33.787Z,17.50
2023-03-28T11:08:16.217Z,17.60
2023-03-28T11:11:01.343Z,17.60
2023-03-28T11:13:45.033Z,17.60
2023-03-28T11:16:21.974Z,17.80
2023-03-28T11:19:21.935Z,17.80
2023-03-28T11:22:00.536Z,17.90
2023-03-28T11:24:35.926Z,17.90
2023-03-28T11:27:42.010Z,17.80
2023-03-28T11:30:28.007Z,17.90
2023-03-28T11:33:15.720Z,17.90
2023-03-28T11:35:49.627Z,17.90
2023-03-28T11:38:22.549Z,18.00
2023-03-28T11:40:57.686Z,18.20
2023-03-28T11:43:56.321Z,18.50
2023-03-28T11:46:29.777Z,18.70
2023-03-28T11:49:09.447Z,18.80
2023-03-28T11:51:46.067Z,18.90
2023-03-28T11:54:20.774Z,19.00
2023-03-28T11:56:55.770Z,19.00
2023-03-28T11:59:49.554Z,19.00
2023-03-28T12:02:35.976Z,19.00
2023-03-28T12:05:10.635Z,18.80
2023-03-28T12:07:48.760Z,19.00
2023-03-28T12:10:28.777Z,19.30
2023-03-28T12:13:06.877Z,19.40
2023-03-28T12:15:44.255Z,19.50
2023-03-28T12:18:23.034Z,19.60
2023-03-28T12:21:00.868Z,19.50
2023-03-28T12:24:02.312Z,19.40
2023-03-28T12:27:01.380Z,19.50
2023-03-28T12:29:38.841Z,19.70
2023-03-28T12:32:25.498Z,19.90
2023-03-28T12:35:02.154Z,20.10
2023-03-28T12:37:56.531Z,20.10
2023-03-28T12:40:34.437Z,20.10
2023-03-28T12:43:04.641Z,20.20
2023-03-28T12:45:37.221Z,20.20
2023-03-28T12:48:10.012Z,20.10
2023-03-28T12:50:46.769Z,20.20
2023-03-28T12:53:17.518Z,20.10
2023-03-28T12:55:48.985Z,19.90
2023-03-28T12:58:35.571Z,20.00
2023-03-28T13:01:44.742Z,20.00
2023-03-28T13:04:22.300Z,20.20
2023-03-28T13:07:10.483Z,20.20
2023-03-28T13:09:59.444Z,20.30
2023-03-28T13:12:37.825Z,20.40
2023-03-28T13:15:27.819Z,20.40
2023-03-28T13:18:37.597Z,20.30
2023-03-28T13:21:07.497Z,20.30
2023-03-28T13:23:47.815Z,20.10
2023-03-28T13:26:15.893Z,20.00
2023-03-28T13:28:47.598Z,19.90
2023-03-28T13:31:24.592Z,20.00
2023-03-28T13:33:58.822Z,20.10
2023-03-28T13:36:32.781Z,20.30
2023-03-28T13:39:21.014Z,20.40
2023-03-28T13:42:00.248Z,20.60
2023-03-28T13:44:41.148Z,20.70
2023-03-28T13:47:18.148Z,20.90
2023-03-28T13:49:51.479Z,21.00
2023-03-28T13:52:22.631Z,21.00
2023-03-28T13:54:56.567Z,21.20
2023-03-28T13:57:27.200Z,20.80
2023-03-28T13:59:58.825Z,21.00
2023-03-28T14:02:37.564Z,20.80
2023-03-28T14:05:14.349Z,20.70
2023-03-28T14:07:42.533Z,20.50
2023-03-28T14:10:57.101Z,20.40
2023-03-28T14:13:30.276Z,20.30
2023-03-28T14:15:59.883Z,20.30
2023-03-28T14:18:32.754Z,20.30
2023-03-28T14:21:01.583Z,20.60
2023-03-28T14:23:32.566Z,20.50
2023-03-28T14:26:02.585Z,20.80
2023-03-28T14:28:31.894Z,20.80
2023-03-28T14:31:01.801Z,20.40
2023-03-28T14:33:37.585Z,20.20
2023-03-28T14:36:06.511Z,20.00
2023-03-28T14:38:36.453Z,19.90
2023-03-28T14:41:13.749Z,19.90
2023-03-28T14:43:42.031Z,19.80
2023-03-28T14:46:11.710Z,19.60
2023-03-28T14:48:41.473Z,19.40
2023-03-28T14:51:14.032Z,19.50
2023-03-28T14:53:45.033Z,19.30
2023-03-28T14:56:17.869Z,19.40
2023-03-28T14:58:47.967Z,19.30
2023-03-28T15:01:23.161Z,19.80
2023-03-28T15:03:56.945Z,20.40
2023-03-28T15:06:25.447Z,20.40
2023-03-28T15:11:54.988Z,19.20
2023-03-28T15:14:31.145Z,19.90
2023-03-28T15:17:01.212Z,20.30
2023-03-28T15:19:36.009Z,20.30
2023-03-28T15:22:08.719Z,21.00
2023-03-28T15:24:38.680Z,20.20
2023-03-28T15:27:08.707Z,20.00
2023-03-28T15:29:39.398Z,19.90
2023-03-28T15:32:16.940Z,20.30
2023-03-28T15:34:47.390Z,20.90
2023-03-28T15:37:22.025Z,20.70
2023-03-28T15:39:51.264Z,20.10
2023-03-28T15:42:34.560Z,20.30
2023-03-28T15:45:39.136Z,20.10
2023-03-28T15:48:18.305Z,20.30
2023-03-28T15:50:51.343Z,19.20
2023-03-28T15:53:20.422Z,18.30
2023-03-28T15:55:50.029Z,17.70
2023-03-28T15:58:20.936Z,17.50
2023-03-28T16:00:50.186Z,17.40
2023-03-28T16:03:34.822Z,17.20
2023-03-28T16:06:23.006Z,17.10
2023-03-28T16:09:23.672Z,16.80
2023-03-28T16:11:58.201Z,16.80
2023-03-28T16:14:39.172Z,16.80
2023-03-28T16:17:31.684Z,16.90
2023-03-28T16:20:27.428Z,16.80
2023-03-28T16:22:58.730Z,16.80
2023-03-28T16:25:28.057Z,16.50
2023-03-28T16:27:56.839Z,16.30
2023-03-28T16:30:28.978Z,16.20
2023-03-28T16:32:57.110Z,16.10
2023-03-28T16:35:28.736Z,16.10
2023-03-28T16:37:56.760Z,16.00
2023-03-28T16:40:24.759Z,16.10
2023-03-28T16:42:53.023Z,16.40
2023-03-28T16:45:21.345Z,16.60
2023-03-28T16:47:49.429Z,16.60
2023-03-28T16:50:17.735Z,18.10
2023-03-28T16:52:47.114Z,20.20
2023-03-28T16:55:16.306Z,21.00
2023-03-28T16:57:44.489Z,20.70
2023-03-28T17:00:18.178Z,20.30
2023-03-28T17:02:47.680Z,18.30
2023-03-28T17:05:16.344Z,16.90
2023-03-28T17:07:44.277Z,16.30
2023-03-28T17:10:13.906Z,16.10
2023-03-28T17:12:42.440Z,15.80
2023-03-28T17:15:10.993Z,15.70
2023-03-28T17:17:39.004Z,15.50
2023-03-28T17:20:08.297Z,15.30
2023-03-28T17:22:36.383Z,15.10
2023-03-28T17:25:04.564Z,15.00
2023-03-28T17:27:34.028Z,14.90
2023-03-28T17:30:02.052Z,14.70
2023-03-28T17:32:30.811Z,14.60
2023-03-28T17:34:58.950Z,14.60
2023-03-28T17:37:26.936Z,14.50
2023-03-28T17:39:55.174Z,14.50
2023-03-28T17:42:23.288Z,14.80
2023-03-28T17:44:54.826Z,14.80
2023-03-28T17:47:23.067Z,14.80
2023-03-28T17:49:56.121Z,14.90
2023-03-28T17:52:24.792Z,14.70
2023-03-28T17:54:52.749Z,14.50
2023-03-28T17:57:21.173Z,14.40
2023-03-28T17:59:49.052Z,14.50
2023-03-28T18:02:18.623Z,14.60
2023-03-28T18:04:54.829Z,14.30
2023-03-28T18:07:28.517Z,14.20
2023-03-28T18:10:01.123Z,14.20
2023-03-28T18:12:29.035Z,14.10
2023-03-28T18:15:00.316Z,14.10
2023-03-28T18:17:30.486Z,14.50
2023-03-28T18:19:59.156Z,14.70
2023-03-28T18:22:29.304Z,14.80
2023-03-28T18:24:57.351Z,14.90
2023-03-28T18:27:25.359Z,14.90
2023-03-28T18:29:53.733Z,14.90
2023-03-28T18:32:21.599Z,14.80
2023-03-28T18:34:51.129Z,14.70
2023-03-28T18:37:19.421Z,14.60
2023-03-28T18:39:47.619Z,14.50
2023-03-28T18:42:15.483Z,14.60
2023-03-28T18:44:43.397Z,14.40
2023-03-28T18:47:11.328Z,14.00
2023-03-28T18:49:41.170Z,13.80
2023-03-28T18:52:10.864Z,13.60
2023-03-28T18:54:38.919Z,13.50
2023-03-28T18:57:06.914Z,13.50
2023-03-28T18:59:34.762Z,13.40
2023-03-28T19:02:04.503Z,13.70
2023-03-28T19:04:33.438Z,13.70
2023-03-28T19:07:02.464Z,13.90
2023-03-28T19:09:31.931Z,14.00
2023-03-28T19:12:01.997Z,14.10
2023-03-28T19:14:30.719Z,13.90
2023-03-28T19:16:58.906Z,13.80
2023-03-28T19:19:27.844Z,14.00
2023-03-28T19:21:55.984Z,14.20
2023-03-28T19:24:24.099Z,14.20
2023-03-28T19:26:54.089Z,14.10
2023-03-28T19:29:22.150Z,13.90
2023-03-28T19:31:52.330Z,13.80
2023-03-28T19:34:21.236Z,13.60
2023-03-28T19:36:49.065Z,13.10
2023-03-28T19:39:17.467Z,12.90
2023-03-28T19:41:45.955Z,12.90
2023-03-28T19:44:15.398Z,13.20
2023-03-28T19:46:43.345Z,13.50
2023-03-28T19:49:11.878Z,13.60
2023-03-28T19:51:39.718Z,13.60
2023-03-28T19:54:07.993Z,13.70
2023-03-28T19:56:36.528Z,13.70
2023-03-28T19:59:04.695Z,13.60
2023-03-28T20:01:34.232Z,13.60
2023-03-28T20:04:02.573Z,13.60
2023-03-28T20:06:30.752Z,13.60
2023-03-28T20:08:59.141Z,13.50
2023-03-28T20:11:27.119Z,13.40
2023-03-28T20:13:55.137Z,13.40
2023-03-28T20:16:23.154Z,13.30
2023-03-28T20:18:55.030Z,13.30
2023-03-28T20:21:23.402Z,13.20
2023-03-28T20:23:51.522Z,13.30
2023-03-28T20:26:22.316Z,13.10
2023-03-28T20:28:56.973Z,13.10
2023-03-28T20:31:25.557Z,13.20
2023-03-28T20:33:56.683Z,13.10
2023-03-28T20:36:24.819Z,13.10
2023-03-28T20:38:55.423Z,13.00
2023-03-28T20:41:24.470Z,12.90
2023-03-28T20:43:53.445Z,12.80
2023-03-28T20:46:22.472Z,12.80
2023-03-28T20:48:57.199Z,12.80
2023-03-28T20:51:29.773Z,12.60
2023-03-28T20:53:59.469Z,12.50
2023-03-28T20:56:29.337Z,12.40
2023-03-28T20:58:59.186Z,12.40
2023-03-28T21:01:30.464Z,12.50
2023-03-28T21:04:00.838Z,12.40
2023-03-28T21:06:31.749Z,12.40
2023-03-28T21:09:02.417Z,12.40
2023-03-28T21:11:32.901Z,12.40
2023-03-28T21:14:02.630Z,12.40
2023-03-28T21:16:33.127Z,12.30
2023-03-28T21:19:02.808Z,12.20
2023-03-28T21:21:34.430Z,12.20
2023-03-28T21:24:04.174Z,12.30
2023-03-28T21:26:32.917Z,12.20
2023-03-28T21:29:02.438Z,12.20
2023-03-28T21:31:31.372Z,12.10
2023-03-28T21:34:01.514Z,12.10
2023-03-28T21:36:31.544Z,12.10
2023-03-28T21:39:00.135Z,12.10
2023-03-28T21:41:28.545Z,12.10
2023-03-28T21:43:57.560Z,11.90
2023-03-28T21:46:26.073Z,11.80
2023-03-28T21:48:54.377Z,11.80
2023-03-28T21:51:22.665Z,11.80
2023-03-28T21:53:52.417Z,11.80
2023-03-28T21:56:20.488Z,11.80
2023-03-28T21:58:48.902Z,11.70
2023-03-28T22:01:20.409Z,11.80
2023-03-28T22:03:49.096Z,11.80
2023-03-28T22:06:18.711Z,11.80
2023-03-28T22:08:52.774Z,11.70
2023-03-28T22:11:30.919Z,11.70
2023-03-28T22:14:05.032Z,11.60
2023-03-28T22:16:35.228Z,11.50
2023-03-28T22:19:03.692Z,11.40
2023-03-28T22:21:32.122Z,11.30
2023-03-28T22:24:02.830Z,11.20
2023-03-28T22:26:33.095Z,11.30
2023-03-28T22:29:01.844Z,11.30
2023-03-28T22:31:30.225Z,11.30
2023-03-28T22:33:58.517Z,11.30
2023-03-28T22:36:27.319Z,11.30
2023-03-28T22:38:55.735Z,11.30
2023-03-28T22:41:24.058Z,11.30
2023-03-28T22:43:53.707Z,11.30
2023-03-28T22:46:22.817Z,11.30
2023-03-28T22:48:54.688Z,11.20
2023-03-28T22:51:25.344Z,11.00
2023-03-28T22:53:53.413Z,10.90
2023-03-28T22:56:23.634Z,10.90
2023-03-28T22:59:01.708Z,11.00
2023-03-28T23:01:30.322Z,10.90
2023-03-28T23:03:58.508Z,10.70
2023-03-28T23:06:27.584Z,10.70
2023-03-28T23:08:55.603Z,10.60
2023-03-28T23:11:23.762Z,10.50
2023-03-28T23:13:52.060Z,10.50
2023-03-28T23:16:21.763Z,10.50
2023-03-28T23:18:50.351Z,10.50
2023-03-28T23:21:19.048Z,10.50
2023-03-28T23:23:47.607Z,10.50
2023-03-28T23:26:16.002Z,10.50
2023-03-28T23:28:44.074Z,10.60
2023-03-28T23:31:12.624Z,10.50
2023-03-28T23:33:42.586Z,10.50
2023-03-28T23:36:12.187Z,10.50
2023-03-28T23:38:41.016Z,10.50
2023-03-28T23:41:09.756Z,10.40
2023-03-28T23:43:39.322Z,10.40
2023-03-28T23:46:08.254Z,10.40
2023-03-28T23:48:36.514Z,10.40
2023-03-28T23:51:07.173Z,10.40
2023-03-28T23:53:35.417Z,10.40
2023-03-28T23:56:04.010Z,10.50
2023-03-28T23:58:32.124Z,10.30
